Time;durP1;ratioP1;P1;durP2;ratioP2;P2;SDS_P1;SDS_P2;PMS_P1;PMS_P2;Temp;Humidity;BMP_temperature;BMP_pressure;BME280_temperature;BME280_humidity;BME280_pressure;Samples;Min_cycle;Max_cycle;Signal;HPM_P1;HPM_P2
2022/06/23 00:02:24;;;;;;;3.63;2.93;;;17.30;93.10;;;;;;5056819;28;20181;-80
2022/06/23 00:04:53;;;;;;;9.43;3.60;;;17.00;94.00;;;;;;5038605;28;20165;-79
2022/06/23 00:07:27;;;;;;;4.13;3.47;;;17.10;94.00;;;;;;5038449;28;20184;-79
2022/06/23 00:09:55;;;;;;;5.83;3.50;;;17.10;94.40;;;;;;5038229;28;20173;-81
2022/06/23 00:12:38;;;;;;;4.60;3.60;;;17.00;95.00;;;;;;5037894;28;20587;-80
2022/06/23 00:15:06;;;;;;;12.63;3.80;;;16.90;95.10;;;;;;5038122;28;20550;-80
2022/06/23 00:17:53;;;;;;;7.37;3.50;;;17.00;94.90;;;;;;5038236;28;20220;-81
2022/06/23 00:20:33;;;;;;;5.93;3.47;;;16.90;94.80;;;;;;5038597;28;20192;-80
2022/06/23 00:23:09;;;;;;;9.17;3.50;;;16.90;94.70;;;;;;5037746;28;20253;-79
2022/06/23 00:25:47;;;;;;;8.83;3.43;;;17.00;94.60;;;;;;5037932;28;20184;-80
2022/06/23 00:28:38;;;;;;;7.40;3.57;;;16.90;94.50;;;;;;5038167;28;20180;-80
2022/06/23 00:31:06;;;;;;;9.00;3.87;;;16.80;94.80;;;;;;5027254;28;20223;-79
2022/06/23 00:33:41;;;;;;;5.60;3.50;;;16.70;95.00;;;;;;5037759;28;20194;-80
2022/06/23 00:36:28;;;;;;;8.90;3.87;;;16.70;95.30;;;;;;5038526;28;20187;-79
2022/06/23 00:38:55;;;;;;;7.00;4.10;;;16.80;94.80;;;;;;5038247;28;20181;-80
2022/06/23 00:41:28;;;;;;;7.73;3.83;;;16.50;95.50;;;;;;5037797;28;20173;-80
2022/06/23 00:43:56;;;;;;;12.73;3.80;;;16.60;96.10;;;;;;5037472;28;20181;-80
2022/06/23 00:46:40;;;;;;;12.20;4.27;;;16.60;95.80;;;;;;5037684;28;20178;-78
2022/06/23 00:49:33;;;;;;;8.33;4.00;;;16.80;95.30;;;;;;5037765;28;20189;-79
2022/06/23 00:52:18;;;;;;;8.07;4.37;;;16.60;96.00;;;;;;5037383;28;20216;-80
2022/06/23 00:54:49;;;;;;;11.50;4.43;;;16.60;96.10;;;;;;5038273;28;20665;-80
2022/06/23 00:57:46;;;;;;;10.50;4.50;;;16.50;96.10;;;;;;5038234;28;20235;-80
2022/06/23 01:00:26;;;;;;;6.33;4.50;;;16.50;96.90;;;;;;5033565;28;20182;-80
2022/06/23 01:02:56;;;;;;;10.07;4.63;;;16.20;96.80;;;;;;5037598;28;20246;-79
2022/06/23 01:05:44;;;;;;;10.37;4.27;;;16.40;97.10;;;;;;5037777;28;20169;-80
2022/06/23 01:08:31;;;;;;;10.97;4.47;;;16.40;97.20;;;;;;5038231;28;20177;-80
2022/06/23 01:11:43;;;;;;;9.97;4.50;;;16.40;96.90;;;;;;5037885;28;20177;-79
2022/06/23 01:14:24;;;;;;;8.60;4.10;;;16.30;97.90;;;;;;5018093;28;20616;-80
2022/06/23 01:16:55;;;;;;;8.63;4.30;;;16.30;97.50;;;;;;5037630;28;20226;-79
2022/06/23 01:19:56;;;;;;;11.57;4.27;;;16.30;98.00;;;;;;5037892;28;20189;-79
2022/06/23 01:22:55;;;;;;;13.23;4.40;;;16.20;98.30;;;;;;5037619;28;20607;-79
2022/06/23 01:25:54;;;;;;;11.47;4.57;;;15.90;99.10;;;;;;5019349;28;20176;-80
2022/06/23 01:28:27;;;;;;;11.20;4.37;;;15.80;99.40;;;;;;5038171;28;20596;-80
2022/06/23 01:31:15;;;;;;;11.27;4.43;;;16.10;99.90;;;;;;5038047;28;20645;-79
2022/06/23 01:34:27;;;;;;;8.43;4.30;;;15.90;99.90;;;;;;5038224;28;20258;-79
2022/06/23 01:37:24;;;;;;;6.43;4.30;;;15.90;99.90;;;;;;5036261;28;20200;-80
2022/06/23 01:40:15;;;;;;;9.20;4.50;;;15.90;99.90;;;;;;5002810;28;20179;-80
2022/06/23 01:43:13;;;;;;;10.27;4.97;;;15.90;99.90;;;;;;5042194;28;20216;-78
2022/06/23 01:45:53;;;;;;;9.87;5.07;;;15.70;99.90;;;;;;5031916;28;20177;-79
2022/06/23 01:48:53;;;;;;;10.17;5.20;;;15.70;99.90;;;;;;5042901;28;20180;-80
2022/06/23 01:51:31;;;;;;;9.57;5.10;;;15.60;99.90;;;;;;5042368;28;20267;-80
2022/06/23 01:54:27;;;;;;;6.73;4.77;;;15.70;99.90;;;;;;5042766;28;20594;-80
2022/06/23 01:56:55;;;;;;;6.57;5.17;;;15.70;99.90;;;;;;5021981;28;20205;-80
2022/06/23 01:59:59;;;;;;;8.90;5.00;;;15.60;99.90;;;;;;5042621;28;20639;-79
2022/06/23 02:02:27;;;;;;;9.37;4.83;;;15.60;99.90;;;;;;5042553;28;20197;-79
2022/06/23 02:04:53;;;;;;;10.90;5.50;;;15.60;99.90;;;;;;5042457;28;20178;-80
2022/06/23 02:07:40;;;;;;;11.70;5.20;;;15.60;99.90;;;;;;5042114;28;20188;-79
2022/06/23 02:10:15;;;;;;;8.27;4.73;;;15.50;99.90;;;;;;5043050;28;20174;-79
2022/06/23 02:12:41;;;;;;;8.83;5.20;;;15.40;99.90;;;;;;5040986;28;20575;-79
2022/06/23 02:15:31;;;;;;;8.37;5.20;;;15.20;99.90;;;;;;5039426;28;20180;-80
2022/06/23 02:18:15;;;;;;;7.90;5.33;;;15.40;99.90;;;;;;5039606;28;20255;-80
2022/06/23 02:20:52;;;;;;;10.60;5.43;;;15.40;99.90;;;;;;5039863;28;20775;-80
2022/06/23 02:23:52;;;;;;;12.00;5.17;;;15.40;99.90;;;;;;5040013;28;20665;-80
2022/06/23 02:26:48;;;;;;;12.83;5.80;;;15.40;99.90;;;;;;5022113;28;20192;-79
2022/06/23 02:29:27;;;;;;;10.07;5.33;;;15.20;99.90;;;;;;5040249;28;20185;-80
2022/06/23 02:32:01;;;;;;;13.27;5.60;;;15.10;99.90;;;;;;5039110;28;20185;-80
2022/06/23 02:34:34;;;;;;;11.77;6.27;;;15.00;99.90;;;;;;5039683;28;20170;-80
2022/06/23 02:37:25;;;;;;;8.43;5.53;;;15.00;99.90;;;;;;5039881;28;20205;-80
2022/06/23 02:39:55;;;;;;;9.43;5.90;;;15.10;99.90;;;;;;5039681;28;20166;-80
2022/06/23 02:42:32;;;;;;;11.33;5.70;;;15.20;99.90;;;;;;5057432;28;20250;-80
2022/06/23 02:45:29;;;;;;;12.23;6.50;;;15.10;99.90;;;;;;5039209;28;20168;-79
2022/06/23 02:48:19;;;;;;;11.50;6.10;;;15.10;99.90;;;;;;5057396;28;20568;-80
2022/06/23 02:51:00;;;;;;;11.67;6.23;;;14.90;99.90;;;;;;5039326;28;20199;-79
2022/06/23 02:53:31;;;;;;;11.17;6.30;;;15.00;99.90;;;;;;5039467;28;20304;-79
2022/06/23 02:56:24;;;;;;;12.43;5.90;;;15.00;99.90;;;;;;5039713;28;20181;-80
2022/06/23 02:59:10;;;;;;;11.63;5.97;;;15.00;99.90;;;;;;5039170;28;20268;-79
2022/06/23 03:01:51;;;;;;;9.23;6.27;;;14.80;99.90;;;;;;5038530;28;20542;-78
2022/06/23 03:04:29;;;;;;;12.93;6.67;;;14.80;99.90;;;;;;5038859;28;20197;-79
2022/06/23 03:07:16;;;;;;;12.23;6.33;;;14.90;99.90;;;;;;5038778;28;20180;-79
2022/06/23 03:09:46;;;;;;;14.70;6.33;;;14.90;99.90;;;;;;5039202;28;20673;-80
2022/06/23 03:12:15;;;;;;;11.83;6.73;;;14.70;99.90;;;;;;5038746;28;20280;-80
2022/06/23 03:15:01;;;;;;;12.37;6.70;;;14.80;99.90;;;;;;5038484;28;20180;-79
2022/06/23 03:17:36;;;;;;;15.97;6.00;;;14.70;99.90;;;;;;5038597;28;20283;-78
2022/06/23 03:20:10;;;;;;;16.30;7.13;;;14.80;99.90;;;;;;5038380;28;20160;-80
2022/06/23 03:22:59;;;;;;;12.50;6.60;;;14.90;99.90;;;;;;5038680;28;20196;-79
2022/06/23 03:25:34;;;;;;;9.67;6.50;;;15.00;99.90;;;;;;5038832;28;20208;-79
2022/06/23 03:28:23;;;;;;;11.23;6.33;;;14.90;99.90;;;;;;5039047;28;20263;-78
2022/06/23 03:31:07;;;;;;;13.40;6.77;;;14.80;99.90;;;;;;5038643;28;20185;-80
2022/06/23 03:33:40;;;;;;;12.70;6.93;;;14.80;99.90;;;;;;5038915;28;20193;-78
2022/06/23 03:36:46;;;;;;;12.27;6.70;;;14.90;99.90;;;;;;5053818;23;21778;-80
2022/06/23 03:42:23;;;;;;;13.43;6.10;;;14.80;99.90;;;;;;5077416;28;20258;-80
2022/06/23 03:44:57;;;;;;;11.90;6.90;;;14.80;99.90;;;;;;5075049;28;20659;-78
2022/06/23 03:47:35;;;;;;;13.07;7.00;;;14.90;99.90;;;;;;5073942;28;20184;-79
2022/06/23 03:50:20;;;;;;;19.20;7.17;;;14.90;99.90;;;;;;5074959;28;20176;-80
2022/06/23 03:52:53;;;;;;;15.47;6.87;;;15.00;99.90;;;;;;5075409;28;20279;-80
2022/06/23 03:55:30;;;;;;;14.43;6.93;;;15.10;99.90;;;;;;5074800;28;20164;-78
2022/06/23 03:58:17;;;;;;;13.20;6.77;;;15.10;99.90;;;;;;5074829;28;20203;-80
2022/06/23 04:01:04;;;;;;;14.13;6.33;;;15.10;99.90;;;;;;5074971;28;20169;-80
2022/06/23 04:03:51;;;;;;;17.23;6.40;;;15.10;99.90;;;;;;5074450;28;20193;-78
2022/06/23 04:06:45;;;;;;;11.90;6.77;;;15.00;99.90;;;;;;5073471;28;20165;-78
2022/06/23 04:09:25;;;;;;;10.83;6.70;;;15.20;99.90;;;;;;5073780;28;20182;-78
2022/06/23 04:12:03;;;;;;;9.33;6.73;;;15.20;99.90;;;;;;5073081;28;20220;-78
2022/06/23 04:14:42;;;;;;;16.10;6.97;;;15.20;99.90;;;;;;5072643;28;20267;-78
2022/06/23 04:17:12;;;;;;;13.37;6.33;;;15.40;99.90;;;;;;5073406;28;20776;-78
2022/06/23 04:19:41;;;;;;;17.87;7.20;;;15.40;99.90;;;;;;5073506;28;20210;-78
2022/06/23 04:22:16;;;;;;;11.77;7.53;;;15.40;99.90;;;;;;5072768;28;20189;-78
2022/06/23 04:24:44;;;;;;;15.87;7.30;;;15.60;99.90;;;;;;5073814;28;20202;-78
2022/06/23 04:27:31;;;;;;;12.33;6.70;;;15.70;99.90;;;;;;5073255;28;20169;-78
2022/06/23 04:29:59;;;;;;;14.00;6.97;;;15.90;99.90;;;;;;5073046;28;20218;-78
2022/06/23 04:32:36;;;;;;;9.37;5.77;;;16.50;99.90;;;;;;5072899;28;20300;-78
2022/06/23 04:35:04;;;;;;;10.40;6.20;;;16.70;99.90;;;;;;5073354;28;20239;-77
2022/06/23 04:37:59;;;;;;;11.83;6.00;;;17.10;99.90;;;;;;5074579;28;20207;-78
2022/06/23 04:40:45;;;;;;;12.93;5.03;;;17.50;99.90;;;;;;5073803;28;20164;-78
2022/06/23 04:43:34;;;;;;;11.37;4.53;;;17.50;99.90;;;;;;5074142;28;20670;-78
2022/06/23 04:46:06;;;;;;;10.43;5.28;;;18.10;99.90;;;;;;5074641;28;20172;-78
2022/06/23 04:48:56;;;;;;;13.80;5.07;;;18.10;99.90;;;;;;5075099;28;20196;-78
2022/06/23 04:51:30;;;;;;;11.15;4.93;;;18.00;99.90;;;;;;5074161;28;20179;-78
2022/06/23 04:54:11;;;;;;;7.22;4.63;;;18.30;99.90;;;;;;5074406;28;20599;-78
2022/06/23 04:57:02;;;;;;;7.93;5.07;;;18.80;99.90;;;;;;5073740;28;20215;-78
2022/06/23 04:59:39;;;;;;;9.80;4.50;;;18.70;99.90;;;;;;5073346;28;20660;-78
2022/06/23 05:02:18;;;;;;;9.48;4.70;;;18.40;99.90;;;;;;5073094;28;20192;-78
2022/06/23 05:04:45;;;;;;;11.18;5.25;;;18.70;99.90;;;;;;5073889;28;20176;-78
2022/06/23 05:07:21;;;;;;;6.97;5.03;;;18.80;99.90;;;;;;5072524;28;20168;-78
2022/06/23 05:09:50;;;;;;;8.55;4.60;;;18.40;99.90;;;;;;5072475;28;20160;-78
2022/06/23 05:12:26;;;;;;;14.95;5.15;;;18.70;99.90;;;;;;5071462;28;20195;-78
2022/06/23 05:15:23;;;;;;;8.55;4.93;;;19.00;99.90;;;;;;5072876;28;20263;-78
2022/06/23 05:18:00;;;;;;;14.35;5.43;;;19.10;99.90;;;;;;5072317;28;20208;-78
2022/06/23 05:20:41;;;;;;;9.88;4.97;;;19.80;99.90;;;;;;5072509;28;20218;-78
2022/06/23 05:23:20;;;;;;;14.02;4.50;;;20.00;99.90;;;;;;5072737;28;20188;-78
2022/06/23 05:25:48;;;;;;;17.00;5.38;;;19.50;99.90;;;;;;5071757;28;20212;-78
2022/06/23 05:28:30;;;;;;;11.00;4.85;;;19.40;99.90;;;;;;5071492;28;20177;-78
2022/06/23 05:31:03;;;;;;;7.13;4.55;;;19.80;99.90;;;;;;5072051;28;20183;-79
2022/06/23 05:33:31;;;;;;;9.93;4.50;;;20.60;98.90;;;;;;5071646;28;20208;-78
2022/06/23 05:36:19;;;;;;;7.47;4.28;;;20.50;98.80;;;;;;5071687;28;20203;-79
2022/06/23 05:38:56;;;;;;;9.40;3.90;;;20.90;97.00;;;;;;5071488;28;20203;-78
2022/06/23 05:41:28;;;;;;;9.25;3.80;;;20.30;97.60;;;;;;5071491;28;20242;-78
2022/06/23 05:43:56;;;;;;;8.85;3.92;;;20.80;97.40;;;;;;5071191;28;20204;-78
2022/06/23 05:46:24;;;;;;;8.07;3.50;;;21.00;96.70;;;;;;5071407;28;20174;-78
2022/06/23 05:49:04;;;;;;;12.13;3.88;;;21.30;96.80;;;;;;5071942;28;20196;-78
2022/06/23 05:52:04;;;;;;;7.15;3.55;;;21.20;96.10;;;;;;5074549;28;20203;-79
2022/06/23 05:54:40;;;;;;;13.13;3.75;;;21.50;95.60;;;;;;5069816;28;20184;-78
2022/06/23 05:57:24;;;;;;;14.77;3.90;;;21.80;94.50;;;;;;5075422;28;20200;-79
2022/06/23 06:00:12;;;;;;;7.38;3.33;;;21.90;95.30;;;;;;5075376;28;20169;-79
2022/06/23 06:03:06;;;;;;;5.80;3.15;;;21.80;94.80;;;;;;5074000;28;20188;-79
2022/06/23 06:05:32;;;;;;;6.03;3.17;;;22.60;93.60;;;;;;5064430;28;20214;-79
2022/06/23 06:08:00;;;;;;;11.00;3.40;;;22.90;93.40;;;;;;5073700;28;20177;-79
2022/06/23 06:10:28;;;;;;;8.15;3.22;;;23.20;92.50;;;;;;5074298;28;20183;-79
2022/06/23 06:12:55;;;;;;;8.52;3.10;;;22.90;92.60;;;;;;5074900;28;20234;-79
2022/06/23 06:15:27;;;;;;;11.45;3.30;;;22.90;92.00;;;;;;5076568;28;20199;-79
2022/06/23 06:18:01;;;;;;;9.07;2.88;;;23.10;91.50;;;;;;5076213;28;20208;-79
2022/06/23 06:20:27;;;;;;;4.22;2.88;;;23.20;90.30;;;;;;5075150;28;20164;-79
2022/06/23 06:23:14;;;;;;;7.57;3.00;;;23.20;91.00;;;;;;5076741;28;20199;-79
2022/06/23 06:25:47;;;;;;;7.50;2.92;;;23.50;90.50;;;;;;5080128;28;20179;-79
2022/06/23 06:28:27;;;;;;;5.43;2.72;;;23.80;90.80;;;;;;5080626;28;20176;-82
2022/06/23 06:30:56;;;;;;;7.00;2.88;;;23.80;89.80;;;;;;5079802;28;20176;-81
2022/06/23 06:33:42;;;;;;;5.22;2.80;;;23.70;89.00;;;;;;5078685;28;20266;-79
2022/06/23 06:36:41;;;;;;;7.22;2.85;;;24.10;88.40;;;;;;5079485;28;20184;-79
2022/06/23 06:39:12;;;;;;;7.45;2.35;;;24.60;89.20;;;;;;5073068;28;20226;-79
2022/06/23 06:41:40;;;;;;;7.47;2.60;;;25.10;87.60;;;;;;5080011;28;20177;-79
2022/06/23 06:44:08;;;;;;;5.32;2.60;;;25.00;86.60;;;;;;5079382;28;20168;-79
2022/06/23 06:46:37;;;;;;;6.53;2.67;;;24.60;85.00;;;;;;5080221;28;20296;-79
2022/06/23 06:49:02;;;;;;;7.15;2.70;;;25.00;85.50;;;;;;5080367;28;20173;-79
2022/06/23 06:51:29;;;;;;;5.03;2.60;;;25.50;85.30;;;;;;5080033;28;20676;-79
2022/06/23 06:54:05;;;;;;;6.35;2.47;;;25.90;84.60;;;;;;5078755;28;20176;-79
2022/06/23 06:56:37;;;;;;;5.80;2.75;;;25.90;84.40;;;;;;5078215;28;20169;-79
2022/06/23 06:59:32;;;;;;;4.97;2.50;;;25.30;84.80;;;;;;5079742;28;20179;-79
2022/06/23 07:02:04;;;;;;;4.13;2.72;;;25.70;82.70;;;;;;5074114;28;20201;-79
2022/06/23 07:04:39;;;;;;;9.10;2.70;;;26.10;83.80;;;;;;5079602;28;20165;-79
2022/06/23 07:07:08;;;;;;;7.70;2.45;;;26.50;80.50;;;;;;5077798;28;20582;-79
2022/06/23 07:10:05;;;;;;;3.85;2.50;;;26.00;83.20;;;;;;5078938;28;20176;-79
2022/06/23 07:12:45;;;;;;;7.25;2.70;;;26.00;82.40;;;;;;5078770;28;20197;-79
2022/06/23 07:15:20;;;;;;;9.27;2.67;;;26.40;81.90;;;;;;5078348;28;20176;-79
2022/06/23 07:17:53;;;;;;;5.03;2.80;;;26.60;81.20;;;;;;5078906;28;20250;-79
2022/06/23 07:20:32;;;;;;;5.03;2.20;;;27.40;80.50;;;;;;5078770;28;20169;-79
2022/06/23 07:23:05;;;;;;;15.95;2.70;;;27.00;79.10;;;;;;5079673;28;20223;-79
2022/06/23 07:25:37;;;;;;;4.80;2.40;;;27.00;80.10;;;;;;5079298;28;20204;-79
2022/06/23 07:28:12;;;;;;;5.72;2.30;;;27.00;79.80;;;;;;5078145;28;20675;-79
2022/06/23 07:30:45;;;;;;;3.20;2.30;;;26.50;81.00;;;;;;5076317;28;20221;-78
2022/06/23 07:33:15;;;;;;;4.63;2.10;;;27.20;79.60;;;;;;5076257;28;20192;-79
2022/06/23 07:35:52;;;;;;;6.47;2.50;;;27.10;79.00;;;;;;5074953;28;20169;-78
2022/06/23 07:38:28;;;;;;;8.00;2.90;;;27.00;78.10;;;;;;5075208;28;20301;-78
2022/06/23 07:41:00;;;;;;;5.40;2.25;;;27.30;78.80;;;;;;5075666;28;20160;-78
2022/06/23 07:43:42;;;;;;;5.28;2.20;;;27.30;77.90;;;;;;5073852;28;20252;-78
2022/06/23 07:46:08;;;;;;;7.10;2.40;;;27.00;77.60;;;;;;5073689;28;20259;-78
2022/06/23 07:48:36;;;;;;;5.88;2.60;;;28.10;78.80;;;;;;5074329;28;20265;-78
2022/06/23 07:51:05;;;;;;;3.53;2.13;;;28.00;79.30;;;;;;5073687;28;20173;-78
2022/06/23 07:53:34;;;;;;;3.30;1.92;;;28.00;78.90;;;;;;5073103;28;20193;-78
2022/06/23 07:56:00;;;;;;;11.55;2.40;;;29.00;76.40;;;;;;5074106;28;20245;-78
2022/06/23 07:58:33;;;;;;;2.10;1.83;;;28.40;76.20;;;;;;5076083;28;20228;-78
2022/06/23 08:01:13;;;;;;;5.72;2.15;;;28.10;76.40;;;;;;5076069;28;20165;-78
2022/06/23 08:04:08;;;;;;;12.40;2.15;;;28.70;74.90;;;;;;5075969;28;20664;-78
2022/06/23 08:06:35;;;;;;;3.97;2.13;;;28.60;74.30;;;;;;5005638;28;20183;-78
2022/06/23 08:09:12;;;;;;;2.97;2.10;;;28.70;74.20;;;;;;5076176;28;20177;-78
2022/06/23 08:14:36;;;;;;;5.75;2.28;;;28.80;74.10;;;;;;5076988;28;20230;-78
2022/06/23 08:17:08;;;;;;;1.77;1.55;;;28.90;74.70;;;;;;5074945;28;20247;-78
2022/06/23 08:19:55;;;;;;;5.43;2.42;;;28.80;73.80;;;;;;5077649;28;20812;-79
2022/06/23 08:22:23;;;;;;;7.18;2.30;;;29.50;74.40;;;;;;5075318;28;20220;-78
2022/06/23 08:24:55;;;;;;;7.45;2.00;;;29.50;72.90;;;;;;5075655;28;20169;-78
2022/06/23 08:27:24;;;;;;;5.53;2.17;;;29.10;73.00;;;;;;5076546;28;20266;-78
2022/06/23 08:29:55;;;;;;;7.93;2.33;;;29.00;75.00;;;;;;5076337;28;20179;-79
2022/06/23 08:32:21;;;;;;;5.88;2.30;;;28.90;73.70;;;;;;5076490;28;20208;-78
2022/06/23 08:35:02;;;;;;;4.28;2.10;;;29.50;74.20;;;;;;5075499;28;20255;-78
2022/06/23 08:37:33;;;;;;;4.75;2.13;;;29.90;74.70;;;;;;5076159;28;20204;-78
2022/06/23 08:40:21;;;;;;;30.02;3.60;;;29.90;73.10;;;;;;5075783;28;20169;-79
2022/06/23 08:42:59;;;;;;;6.35;2.53;;;29.60;74.50;;;;;;5036116;28;20201;-79
2022/06/23 08:45:45;;;;;;;3.20;2.22;;;30.10;73.10;;;;;;5075788;28;20177;-79
2022/06/23 08:48:25;;;;;;;8.63;2.55;;;29.80;73.20;;;;;;5075643;28;20168;-78
2022/06/23 08:51:00;;;;;;;5.93;2.22;;;29.70;74.50;;;;;;5074873;28;20175;-79
2022/06/23 08:53:46;;;;;;;5.63;2.03;;;30.20;73.80;;;;;;5073208;28;20530;-78
2022/06/23 08:56:19;;;;;;;4.45;2.20;;;29.90;72.90;;;;;;5074684;28;20660;-78
2022/06/23 08:58:51;;;;;;;4.15;2.22;;;30.50;73.10;;;;;;5074989;28;20209;-78
2022/06/23 09:01:57;;;;;;;9.32;2.60;;;29.80;72.50;;;;;;5074722;28;20173;-79
2022/06/23 09:04:46;;;;;;;9.75;2.30;;;29.50;74.60;;;;;;5061062;28;20184;-79
2022/06/23 09:07:12;;;;;;;10.32;2.25;;;29.80;73.20;;;;;;5075164;28;20634;-78
2022/06/23 09:10:16;;;;;;;7.72;2.22;;;30.10;74.40;;;;;;5074246;28;20225;-78
2022/06/23 09:13:28;;;;;;;11.98;2.42;;;30.70;72.40;;;;;;4993243;28;20310;-79
2022/06/23 09:16:16;;;;;;;4.03;2.50;;;29.90;74.60;;;;;;4978903;28;20218;-79
2022/06/23 09:19:06;;;;;;;8.98;2.13;;;30.20;72.60;;;;;;5068156;28;20208;-78
2022/06/23 09:21:53;;;;;;;6.35;2.75;;;31.40;73.90;;;;;;5074699;28;20214;-79
2022/06/23 09:24:46;;;;;;;3.50;2.20;;;31.30;72.10;;;;;;5074747;28;20511;-79
2022/06/23 09:27:33;;;;;;;5.30;2.38;;;31.20;71.40;;;;;;5074540;28;20544;-78
2022/06/23 09:30:03;;;;;;;10.93;2.90;;;31.40;71.90;;;;;;5074972;28;20179;-79
2022/06/23 09:32:40;;;;;;;10.23;2.58;;;31.30;72.00;;;;;;5073883;28;20204;-78
2022/06/23 09:35:23;;;;;;;9.50;2.53;;;31.20;71.60;;;;;;5074747;28;20626;-79
2022/06/23 09:38:11;;;;;;;6.72;2.50;;;32.10;72.40;;;;;;5074896;28;20216;-79
2022/06/23 09:41:13;;;;;;;10.60;2.70;;;31.60;70.30;;;;;;5074843;28;20221;-79
2022/06/23 09:44:01;;;;;;;7.38;2.20;;;31.50;70.90;;;;;;5075160;28;20197;-78
2022/06/23 09:47:34;;;;;;;10.23;3.03;;;31.80;69.40;;;;;;5072524;28;20663;-78
2022/06/23 09:50:08;;;;;;;8.45;2.50;;;31.30;69.30;;;;;;4961473;28;20258;-79
2022/06/23 09:52:50;;;;;;;7.32;2.40;;;31.90;69.90;;;;;;5072955;28;20194;-78
2022/06/23 09:55:15;;;;;;;3.47;2.05;;;32.20;69.80;;;;;;5072006;28;20240;-78
2022/06/23 09:57:44;;;;;;;11.43;2.40;;;32.30;70.40;;;;;;5073550;28;20224;-78
2022/06/23 10:00:15;;;;;;;4.97;2.47;;;32.50;69.80;;;;;;5077476;28;20176;-78
2022/06/23 10:02:56;;;;;;;4.22;2.22;;;31.60;69.10;;;;;;5076890;28;20193;-78
2022/06/23 10:05:46;;;;;;;7.22;2.20;;;32.10;70.50;;;;;;5077295;28;20180;-78
2022/06/23 10:08:47;;;;;;;6.65;2.30;;;32.20;68.40;;;;;;5076299;28;20264;-78
2022/06/23 10:11:22;;;;;;;7.72;2.33;;;32.10;68.80;;;;;;5075694;28;20178;-78
2022/06/23 10:14:09;;;;;;;5.70;2.40;;;32.40;69.60;;;;;;5075690;28;20246;-78
2022/06/23 10:16:50;;;;;;;5.28;2.33;;;33.80;69.00;;;;;;5074692;28;20173;-78
2022/06/23 10:19:52;;;;;;;4.28;2.45;;;32.90;67.60;;;;;;5074275;28;20180;-78
2022/06/23 10:22:55;;;;;;;6.90;2.17;;;32.40;67.30;;;;;;5073157;28;20196;-77
2022/06/23 10:25:30;;;;;;;3.75;2.15;;;31.80;67.90;;;;;;5074352;28;20631;-77
2022/06/23 10:28:04;;;;;;;14.07;2.47;;;32.10;67.80;;;;;;5073908;28;20648;-78
2022/06/23 10:31:00;;;;;;;8.30;2.47;;;32.60;67.60;;;;;;5074092;28;20164;-78
2022/06/23 10:33:49;;;;;;;10.07;2.25;;;32.80;66.80;;;;;;5075029;28;20279;-78
2022/06/23 10:36:27;;;;;;;3.92;2.22;;;33.50;65.60;;;;;;5072791;28;20653;-78
2022/06/23 10:39:00;;;;;;;7.47;2.22;;;33.10;64.40;;;;;;5076766;28;20230;-79
2022/06/23 10:41:44;;;;;;;4.03;2.03;;;33.50;64.00;;;;;;5075886;28;20207;-79
2022/06/23 10:44:41;;;;;;;8.93;2.15;;;31.90;65.50;;;;;;5075138;28;20230;-79
2022/06/23 10:47:21;;;;;;;4.13;1.80;;;32.80;64.60;;;;;;5074925;28;20272;-77
2022/06/23 10:50:22;;;;;;;2.33;1.88;;;32.80;64.70;;;;;;5073505;28;20199;-78
2022/06/23 10:53:06;;;;;;;3.97;2.20;;;32.60;63.90;;;;;;5034318;28;20265;-78
2022/06/23 10:55:40;;;;;;;5.13;2.17;;;32.60;66.10;;;;;;5074914;28;20275;-77
2022/06/23 10:58:56;;;;;;;10.40;2.42;;;33.10;63.60;;;;;;5074717;28;20196;-78
2022/06/23 11:01:39;;;;;;;6.38;2.40;;;33.20;63.00;;;;;;5033077;28;20642;-83
2022/06/23 11:04:28;;;;;;;5.28;2.03;;;33.50;63.40;;;;;;5015908;28;20216;-83
2022/06/23 11:07:16;;;;;;;4.13;2.30;;;33.40;63.10;;;;;;5058338;28;20219;-84
2022/06/23 11:10:26;;;;;;;7.53;2.20;;;32.90;63.20;;;;;;5071520;28;20167;-84
2022/06/23 11:13:07;;;;;;;4.32;2.10;;;33.20;62.90;;;;;;5035174;28;20536;-86
2022/06/23 11:15:56;;;;;;;6.43;2.10;;;32.20;63.30;;;;;;5069448;28;20177;-84
2022/06/23 11:18:48;;;;;;;3.25;2.13;;;33.40;63.90;;;;;;5077579;28;20209;-79
2022/06/23 11:21:59;;;;;;;5.40;2.28;;;34.20;62.30;;;;;;5076439;28;20402;-80
2022/06/23 11:24:34;;;;;;;4.72;1.85;;;33.60;62.00;;;;;;5077871;28;20173;-83
2022/06/23 11:27:26;;;;;;;2.20;2.00;;;33.90;62.80;;;;;;5078470;28;20632;-82
2022/06/23 11:30:04;;;;;;;2.65;2.30;;;33.60;61.70;;;;;;5078266;28;20197;-82
2022/06/23 11:32:44;;;;;;;10.98;2.13;;;33.60;61.10;;;;;;5075796;28;20220;-82
2022/06/23 11:35:19;;;;;;;8.15;1.80;;;34.40;61.10;;;;;;5078970;28;20165;-82
2022/06/23 11:38:08;;;;;;;5.00;1.85;;;33.80;60.90;;;;;;5077527;28;20222;-82
2022/06/23 11:41:07;;;;;;;4.43;1.75;;;33.70;61.30;;;;;;5078507;28;20165;-82
2022/06/23 11:43:42;;;;;;;12.02;2.03;;;33.70;61.10;;;;;;5077995;28;20196;-82
2022/06/23 11:46:13;;;;;;;3.25;2.15;;;34.00;62.30;;;;;;5079488;28;20190;-83
2022/06/23 11:48:54;;;;;;;5.70;2.33;;;33.50;62.80;;;;;;5077611;28;20652;-81
2022/06/23 11:51:38;;;;;;;4.78;1.90;;;33.50;62.00;;;;;;5079017;28;20188;-81
2022/06/23 11:54:15;;;;;;;6.55;2.13;;;33.00;62.20;;;;;;5078455;28;20177;-81
2022/06/23 11:57:03;;;;;;;2.92;1.90;;;32.80;60.70;;;;;;5078022;28;20210;-82
2022/06/23 12:00:04;;;;;;;2.05;1.83;;;32.80;61.60;;;;;;5078126;28;20215;-81
2022/06/23 12:02:37;;;;;;;5.57;2.20;;;33.10;61.30;;;;;;5076919;28;20191;-81
2022/06/23 12:05:20;;;;;;;4.45;1.80;;;33.20;63.40;;;;;;5076562;28;20219;-81
2022/06/23 12:08:02;;;;;;;5.47;2.17;;;33.20;61.20;;;;;;5076778;28;20177;-81
2022/06/23 12:10:32;;;;;;;6.35;2.22;;;33.40;61.20;;;;;;5078225;28;20236;-81
2022/06/23 12:13:02;;;;;;;11.38;2.47;;;33.40;62.60;;;;;;5077524;28;20231;-82
2022/06/23 12:15:32;;;;;;;9.80;2.30;;;33.30;61.00;;;;;;5076759;28;20225;-81
2022/06/23 12:18:14;;;;;;;3.08;2.10;;;32.80;61.80;;;;;;5077608;28;20250;-82
2022/06/23 12:20:56;;;;;;;6.10;2.30;;;32.50;61.10;;;;;;5076842;28;20161;-81
2022/06/23 12:23:33;;;;;;;2.17;1.98;;;32.70;61.70;;;;;;5075589;28;20261;-82
2022/06/23 12:26:11;;;;;;;2.15;1.98;;;32.20;60.60;;;;;;5074624;28;20179;-78
2022/06/23 12:29:06;;;;;;;3.35;2.15;;;32.30;61.40;;;;;;5071748;28;20173;-81
2022/06/23 12:31:57;;;;;;;5.45;2.40;;;32.20;61.50;;;;;;5070924;28;20645;-79
2022/06/23 12:34:52;;;;;;;2.75;1.85;;;31.90;62.30;;;;;;5072705;28;20184;-79
2022/06/23 12:37:43;;;;;;;2.85;1.90;;;31.70;61.70;;;;;;5070259;28;20204;-78
2022/06/23 12:40:20;;;;;;;2.22;1.90;;;31.90;62.10;;;;;;5074794;28;20192;-79
2022/06/23 12:42:55;;;;;;;5.85;2.50;;;31.80;61.00;;;;;;5070895;28;20609;-79
2022/06/23 12:45:47;;;;;;;3.50;2.08;;;32.20;62.30;;;;;;5072588;28;20160;-78
2022/06/23 12:48:47;;;;;;;5.97;2.28;;;32.00;62.50;;;;;;5072214;28;20240;-78
2022/06/23 12:51:21;;;;;;;5.13;2.45;;;31.60;62.50;;;;;;5069958;28;20173;-76
2022/06/23 12:54:21;;;;;;;14.10;2.55;;;31.80;65.30;;;;;;5070358;28;20196;-77
2022/06/23 12:56:58;;;;;;;2.33;2.08;;;31.80;63.90;;;;;;5070317;28;20222;-76
2022/06/23 12:59:41;;;;;;;4.22;1.95;;;31.90;63.50;;;;;;5070070;28;20180;-78
2022/06/23 13:02:21;;;;;;;8.75;2.20;;;31.70;62.10;;;;;;5073662;28;20235;-79
2022/06/23 13:04:52;;;;;;;3.30;2.15;;;31.60;62.50;;;;;;5071429;28;20172;-78
2022/06/23 13:07:41;;;;;;;4.55;2.17;;;31.70;63.30;;;;;;5070460;28;20179;-78
2022/06/23 13:10:21;;;;;;;2.67;1.90;;;31.60;62.50;;;;;;5072153;28;20222;-77
2022/06/23 13:13:01;;;;;;;57.25;4.40;;;31.80;61.90;;;;;;5070686;28;20250;-80
2022/06/23 13:15:33;;;;;;;3.30;2.53;;;31.50;64.10;;;;;;5070209;28;20188;-78
2022/06/23 13:18:28;;;;;;;4.03;2.13;;;31.50;62.20;;;;;;5069776;28;20209;-79
2022/06/23 13:21:13;;;;;;;27.50;3.08;;;31.70;62.90;;;;;;5053378;28;20227;-77
2022/06/23 13:23:46;;;;;;;7.90;2.22;;;31.60;63.20;;;;;;5062082;28;20676;-77
2022/06/23 13:26:17;;;;;;;3.28;2.20;;;31.40;62.60;;;;;;5070944;28;20198;-77
2022/06/23 13:28:44;;;;;;;4.40;2.63;;;31.20;62.80;;;;;;5071033;28;20652;-77
2022/06/23 13:31:17;;;;;;;5.18;2.25;;;31.20;62.90;;;;;;5079171;28;20679;-79
2022/06/23 13:33:52;;;;;;;6.53;2.35;;;31.40;63.00;;;;;;5055658;28;21072;-77
2022/06/23 13:36:41;;;;;;;6.15;2.42;;;31.50;63.30;;;;;;5049145;28;20176;-77
2022/06/23 13:39:28;;;;;;;9.55;2.30;;;31.40;63.40;;;;;;5052675;28;20239;-78
2022/06/23 13:41:57;;;;;;;12.90;2.80;;;31.40;63.30;;;;;;5050917;28;20189;-78
2022/06/23 13:44:58;;;;;;;15.73;2.72;;;31.20;63.60;;;;;;5050190;28;20169;-77
2022/06/23 13:48:09;;;;;;;4.88;2.55;;;31.30;64.10;;;;;;5052087;28;20177;-78
2022/06/23 13:50:37;;;;;;;6.45;2.60;;;31.20;63.20;;;;;;5047148;28;20193;-76
2022/06/23 13:53:21;;;;;;;7.30;2.65;;;31.40;62.80;;;;;;5072749;28;20184;-77
2022/06/23 13:55:57;;;;;;;6.50;2.58;;;31.20;62.60;;;;;;5070430;28;20279;-77
2022/06/23 13:58:42;;;;;;;15.52;3.30;;;30.90;64.20;;;;;;5070377;28;20207;-77
2022/06/23 14:01:22;;;;;;;5.80;2.40;;;31.10;63.30;;;;;;5070700;28;20577;-78